createdAt,value
2023-05-10T00:00:41.172Z,19.00
2023-05-10T00:03:26.970Z,18.17
2023-05-10T00:06:13.096Z,18.77
2023-05-10T00:08:58.923Z,17.88
2023-05-10T00:11:44.400Z,17.42
2023-05-10T00:14:29.976Z,17.15
2023-05-10T00:17:15.739Z,16.95
2023-05-10T00:20:01.468Z,18.40
2023-05-10T00:22:46.503Z,16.20
2023-05-10T00:25:31.938Z,16.85
2023-05-10T00:28:17.605Z,17.70
2023-05-10T00:31:03.217Z,19.80
2023-05-10T00:33:48.996Z,17.70
2023-05-10T00:36:34.346Z,19.17
2023-05-10T00:39:19.731Z,20.25
2023-05-10T00:42:05.443Z,19.60
2023-05-10T00:44:51.750Z,20.65
2023-05-10T00:47:37.450Z,20.40
2023-05-10T00:50:24.115Z,19.55
2023-05-10T00:53:10.034Z,19.27
2023-05-10T00:55:55.496Z,21.08
2023-05-10T00:58:41.941Z,20.40
2023-05-10T01:01:28.772Z,18.75
2023-05-10T01:04:15.379Z,20.10
2023-05-10T01:07:00.992Z,18.60
2023-05-10T01:09:46.678Z,19.33
2023-05-10T01:12:32.052Z,20.15
2023-05-10T01:15:18.406Z,21.50
2023-05-10T01:18:04.467Z,21.05
2023-05-10T01:21:05.346Z,20.95
2023-05-10T01:23:50.504Z,20.38
2023-05-10T01:26:53.977Z,22.42
2023-05-10T01:30:24.300Z,22.10
2023-05-10T01:33:36.290Z,19.80
2023-05-10T01:36:29.980Z,21.07
2023-05-10T01:39:33.313Z,20.58
2023-05-10T01:42:25.903Z,19.05
2023-05-10T01:45:32.039Z,17.05
2023-05-10T01:48:19.469Z,19.20
2023-05-10T01:51:07.138Z,16.80
2023-05-10T01:53:59.235Z,18.40
2023-05-10T01:56:46.675Z,18.63
2023-05-10T01:59:37.298Z,21.95
2023-05-10T02:02:25.390Z,18.10
2023-05-10T02:05:13.629Z,19.70
2023-05-10T02:07:59.737Z,23.33
2023-05-10T02:10:47.890Z,21.80
2023-05-10T02:13:35.252Z,20.98
2023-05-10T02:16:24.690Z,19.95
2023-05-10T02:19:11.422Z,19.70
2023-05-10T02:21:58.119Z,19.00
2023-05-10T02:24:44.576Z,20.88
2023-05-10T02:27:31.094Z,19.55
2023-05-10T02:30:17.916Z,20.85
2023-05-10T02:33:06.154Z,22.73
2023-05-10T02:35:52.019Z,21.83
2023-05-10T02:38:37.819Z,21.17
2023-05-10T02:41:25.030Z,21.92
2023-05-10T02:44:11.405Z,24.63
2023-05-10T02:46:57.114Z,25.25
2023-05-10T02:49:43.810Z,27.33
2023-05-10T02:52:35.399Z,31.98
2023-05-10T02:55:26.380Z,36.20
2023-05-10T02:58:12.075Z,39.90
2023-05-10T03:00:57.160Z,45.47
2023-05-10T03:03:42.719Z,38.15
2023-05-10T03:06:29.570Z,32.10
2023-05-10T03:09:16.673Z,31.52
2023-05-10T03:12:27.957Z,27.83
2023-05-10T03:15:21.278Z,30.75
2023-05-10T03:18:11.686Z,25.98
2023-05-10T03:21:02.715Z,26.63
2023-05-10T03:23:52.197Z,26.42
2023-05-10T03:26:38.614Z,27.25
2023-05-10T03:29:32.238Z,26.38
2023-05-10T03:32:17.570Z,26.80
2023-05-10T03:35:11.321Z,28.23
2023-05-10T03:37:57.022Z,27.23
2023-05-10T03:40:42.530Z,29.17
2023-05-10T03:43:27.943Z,28.17
2023-05-10T03:46:13.358Z,29.67
2023-05-10T03:48:58.780Z,26.77
2023-05-10T03:51:44.216Z,31.02
2023-05-10T03:54:29.559Z,34.38
2023-05-10T03:57:15.117Z,27.60
2023-05-10T04:00:00.782Z,32.63
2023-05-10T04:02:46.485Z,27.08
2023-05-10T04:05:37.478Z,29.77
2023-05-10T04:08:23.044Z,29.73
2023-05-10T04:11:10.136Z,27.98
2023-05-10T04:13:55.686Z,26.80
2023-05-10T04:16:41.268Z,28.67
2023-05-10T04:19:33.090Z,26.92
2023-05-10T04:22:18.640Z,27.20
2023-05-10T04:25:04.330Z,23.85
2023-05-10T04:27:49.372Z,31.50
2023-05-10T04:30:34.879Z,24.55
2023-05-10T04:33:20.397Z,27.15
2023-05-10T04:36:06.175Z,31.13
2023-05-10T04:38:51.652Z,27.90
2023-05-10T04:41:39.067Z,26.30
2023-05-10T04:44:24.455Z,27.60
2023-05-10T04:47:12.013Z,24.58
2023-05-10T04:49:58.017Z,25.48
2023-05-10T04:52:43.324Z,23.73
2023-05-10T04:55:29.001Z,24.08
2023-05-10T04:58:14.059Z,23.90
2023-05-10T05:01:07.002Z,24.90
2023-05-10T05:03:53.864Z,22.92
2023-05-10T05:06:39.505Z,25.40
2023-05-10T05:09:24.786Z,26.58
2023-05-10T05:12:14.768Z,24.45
2023-05-10T05:15:00.167Z,29.45
2023-05-10T05:17:45.647Z,27.20
2023-05-10T05:20:34.086Z,27.08
2023-05-10T05:23:21.556Z,26.65
2023-05-10T05:26:06.981Z,28.00
2023-05-10T05:28:55.341Z,27.58
2023-05-10T05:31:40.477Z,23.90
2023-05-10T05:34:26.118Z,27.50
2023-05-10T05:37:18.327Z,21.08
2023-05-10T05:42:50.091Z,22.98
2023-05-10T05:45:35.776Z,21.92
2023-05-10T05:48:21.552Z,18.17
2023-05-10T05:51:07.435Z,18.13
2023-05-10T05:53:52.958Z,19.23
2023-05-10T05:56:38.936Z,17.60
2023-05-10T05:59:24.957Z,16.23
2023-05-10T06:02:11.150Z,16.25
2023-05-10T06:04:56.169Z,14.35
2023-05-10T06:07:44.582Z,15.40
2023-05-10T06:10:29.611Z,13.93
2023-05-10T06:13:14.969Z,15.55
2023-05-10T06:16:00.631Z,22.00
2023-05-10T06:18:46.106Z,14.45
2023-05-10T06:21:31.650Z,15.50
2023-05-10T06:24:17.178Z,15.48
2023-05-10T06:27:02.998Z,15.55
2023-05-10T06:29:49.221Z,17.13
2023-05-10T06:32:36.148Z,16.15
2023-05-10T06:35:22.001Z,15.65
2023-05-10T06:38:07.537Z,16.83
2023-05-10T06:40:53.053Z,24.58
2023-05-10T06:43:40.893Z,17.85
2023-05-10T06:46:25.991Z,20.92
2023-05-10T06:49:11.457Z,16.08
2023-05-10T06:51:57.275Z,17.00
2023-05-10T06:54:42.736Z,15.07
2023-05-10T06:57:31.672Z,12.57
2023-05-10T07:00:18.844Z,12.93
2023-05-10T07:03:04.544Z,13.52
2023-05-10T07:05:49.887Z,13.23
2023-05-10T07:08:35.492Z,11.60
2023-05-10T07:11:20.744Z,10.82
2023-05-10T07:14:06.127Z,11.73
2023-05-10T07:16:51.471Z,11.30
2023-05-10T07:19:37.257Z,12.10
2023-05-10T07:22:22.568Z,11.65
2023-05-10T07:25:08.351Z,12.38
2023-05-10T07:27:53.844Z,12.23
2023-05-10T07:30:39.403Z,11.05
2023-05-10T07:33:24.761Z,12.23
2023-05-10T07:36:10.369Z,10.95
2023-05-10T07:38:57.444Z,10.63
2023-05-10T07:41:43.105Z,12.48
2023-05-10T07:44:28.882Z,11.25
2023-05-10T07:47:14.202Z,15.02
2023-05-10T07:49:59.692Z,12.52
2023-05-10T07:52:45.351Z,12.88
2023-05-10T07:55:30.588Z,13.18
2023-05-10T07:58:16.142Z,12.52
2023-05-10T08:01:01.606Z,14.68
2023-05-10T08:03:47.546Z,12.98
2023-05-10T08:06:32.909Z,13.40
2023-05-10T08:09:18.703Z,11.57
2023-05-10T08:12:04.484Z,12.18
2023-05-10T08:14:49.453Z,11.55
2023-05-10T08:17:35.134Z,11.23
2023-05-10T08:20:20.525Z,10.45
2023-05-10T08:23:05.954Z,9.57
2023-05-10T08:25:51.550Z,8.30
2023-05-10T08:28:37.317Z,8.95
2023-05-10T08:31:22.889Z,11.45
2023-05-10T08:34:08.324Z,9.00
2023-05-10T08:36:53.968Z,9.73
2023-05-10T08:39:39.548Z,8.68
2023-05-10T08:42:28.465Z,7.10
2023-05-10T08:45:14.517Z,7.97
2023-05-10T08:48:03.478Z,6.85
2023-05-10T08:50:53.253Z,7.43
2023-05-10T08:53:38.824Z,7.13
2023-05-10T08:56:24.999Z,7.50
2023-05-10T08:59:10.513Z,5.72
2023-05-10T09:01:58.534Z,5.93
2023-05-10T09:04:43.927Z,5.60
2023-05-10T09:07:29.386Z,5.40
2023-05-10T09:10:16.747Z,5.25
2023-05-10T09:13:03.089Z,5.40
2023-05-10T09:15:49.032Z,4.97
2023-05-10T09:18:34.403Z,3.70
2023-05-10T09:21:21.368Z,5.07
2023-05-10T09:24:08.381Z,4.28
2023-05-10T09:26:53.586Z,6.10
2023-05-10T09:29:43.711Z,5.47
2023-05-10T09:32:43.143Z,4.97
2023-05-10T09:35:33.635Z,5.20
2023-05-10T09:38:18.868Z,4.97
2023-05-10T09:41:05.036Z,4.30
2023-05-10T09:43:51.094Z,4.50
2023-05-10T09:46:37.207Z,5.57
2023-05-10T09:49:23.738Z,3.20
2023-05-10T09:52:09.178Z,4.28
2023-05-10T09:54:55.383Z,4.15
2023-05-10T09:57:41.680Z,3.38
2023-05-10T10:00:28.244Z,3.13
2023-05-10T10:03:20.264Z,4.15
2023-05-10T10:06:18.827Z,3.22
2023-05-10T10:09:12.375Z,4.05
2023-05-10T10:11:57.930Z,3.30
2023-05-10T10:14:43.324Z,4.03
2023-05-10T10:17:29.096Z,3.38
2023-05-10T10:20:15.993Z,2.90
2023-05-10T10:23:01.591Z,3.05
2023-05-10T10:25:49.754Z,4.40
2023-05-10T10:29:08.710Z,3.53
2023-05-10T10:32:01.429Z,3.83
2023-05-10T10:34:47.124Z,4.70
2023-05-10T10:37:46.346Z,3.80
2023-05-10T10:40:35.070Z,4.90
2023-05-10T10:43:26.272Z,4.25
2023-05-10T10:46:16.843Z,3.40
2023-05-10T10:49:21.063Z,3.42
2023-05-10T10:52:37.158Z,3.67
2023-05-10T10:55:23.395Z,3.47
2023-05-10T10:58:09.024Z,2.78
2023-05-10T11:01:13.989Z,3.42
2023-05-10T11:04:18.178Z,3.30
2023-05-10T11:07:22.327Z,3.45
2023-05-10T11:10:07.982Z,2.75
2023-05-10T11:13:10.888Z,3.03
2023-05-10T11:15:58.158Z,3.28
2023-05-10T11:19:04.310Z,3.78
2023-05-10T11:21:51.924Z,3.90
2023-05-10T11:24:37.191Z,3.20
2023-05-10T11:27:22.498Z,3.30
2023-05-10T11:30:09.995Z,5.13
2023-05-10T11:32:55.673Z,3.60
2023-05-10T11:35:43.299Z,3.47
2023-05-10T11:38:28.818Z,4.20
2023-05-10T11:41:14.813Z,4.38
2023-05-10T11:44:00.499Z,4.60
2023-05-10T11:46:45.936Z,4.40
2023-05-10T11:49:31.616Z,4.88
2023-05-10T11:52:19.290Z,4.35
2023-05-10T11:55:05.026Z,4.68
2023-05-10T11:57:53.777Z,5.25
2023-05-10T12:00:39.315Z,3.97
2023-05-10T12:03:25.029Z,5.35
2023-05-10T12:06:10.552Z,4.43
2023-05-10T12:08:56.054Z,7.20
2023-05-10T12:11:44.315Z,7.40
2023-05-10T12:14:34.777Z,7.18
2023-05-10T12:17:19.939Z,7.55
2023-05-10T12:20:18.803Z,11.02
2023-05-10T12:23:04.915Z,8.40
2023-05-10T12:25:50.554Z,8.77
2023-05-10T12:28:36.500Z,10.15
2023-05-10T12:31:22.225Z,7.70
2023-05-10T12:34:09.112Z,9.63
2023-05-10T12:36:54.903Z,7.75
2023-05-10T12:39:45.774Z,6.68
2023-05-10T12:42:32.477Z,7.03
2023-05-10T12:45:19.279Z,7.50
2023-05-10T12:48:04.711Z,4.78
2023-05-10T12:50:50.122Z,4.40
2023-05-10T12:53:35.898Z,6.68
2023-05-10T12:56:21.363Z,4.28
2023-05-10T12:59:06.462Z,5.47
2023-05-10T13:01:52.017Z,4.57
2023-05-10T13:04:40.401Z,3.83
2023-05-10T13:07:25.954Z,5.38
2023-05-10T13:10:12.272Z,4.55
2023-05-10T13:12:58.448Z,3.25
2023-05-10T13:15:43.914Z,3.30
2023-05-10T13:18:29.233Z,3.40
2023-05-10T13:21:14.708Z,4.00
2023-05-10T13:24:01.420Z,3.33
2023-05-10T13:26:46.797Z,3.03
2023-05-10T13:29:32.909Z,3.33
2023-05-10T13:32:18.235Z,3.35
2023-05-10T13:35:04.405Z,5.13
2023-05-10T13:37:49.583Z,3.75
2023-05-10T13:40:37.016Z,3.42
2023-05-10T13:43:22.477Z,3.88
2023-05-10T13:46:07.953Z,3.15
2023-05-10T13:48:53.243Z,4.20
2023-05-10T13:51:38.811Z,4.43
2023-05-10T13:54:24.823Z,3.47
2023-05-10T13:57:12.660Z,3.13
2023-05-10T13:59:58.260Z,2.88
2023-05-10T14:02:43.823Z,4.57
2023-05-10T14:05:29.321Z,4.68
2023-05-10T14:08:15.677Z,4.97
2023-05-10T14:11:01.314Z,4.85
2023-05-10T14:13:46.959Z,5.15
2023-05-10T14:16:32.679Z,5.50
2023-05-10T14:19:18.373Z,5.03
2023-05-10T14:22:03.857Z,5.63
2023-05-10T14:24:49.732Z,5.72
2023-05-10T14:27:35.230Z,5.45
2023-05-10T14:30:20.563Z,4.10
2023-05-10T14:33:05.988Z,4.38
2023-05-10T14:35:51.638Z,3.30
2023-05-10T14:38:37.145Z,2.97
2023-05-10T14:41:22.809Z,4.22
2023-05-10T14:44:07.821Z,4.30
2023-05-10T14:46:53.254Z,4.18
2023-05-10T14:49:38.534Z,2.72
2023-05-10T14:52:23.975Z,4.13
2023-05-10T14:55:09.809Z,2.78
2023-05-10T14:57:55.297Z,2.55
2023-05-10T15:00:41.959Z,3.20
2023-05-10T15:03:28.146Z,3.28
2023-05-10T15:06:15.730Z,4.63
2023-05-10T15:09:01.777Z,3.33
2023-05-10T15:11:47.115Z,4.82
2023-05-10T15:14:33.802Z,2.63
2023-05-10T15:17:19.101Z,3.25
2023-05-10T15:20:05.275Z,2.65
2023-05-10T15:22:50.396Z,3.10
2023-05-10T15:25:38.045Z,3.83
2023-05-10T15:28:23.427Z,3.85
2023-05-10T15:31:09.188Z,4.07
2023-05-10T15:33:59.948Z,5.47
2023-05-10T15:36:46.330Z,6.18
2023-05-10T15:39:31.386Z,6.40
2023-05-10T15:42:17.164Z,7.13
2023-05-10T15:45:02.250Z,5.13
2023-05-10T15:47:47.748Z,6.25
2023-05-10T15:50:33.069Z,4.60
2023-05-10T15:53:18.474Z,7.68
2023-05-10T15:56:04.027Z,5.20
2023-05-10T15:58:49.253Z,5.85
2023-05-10T16:01:34.880Z,4.47
2023-05-10T16:04:20.035Z,4.00
2023-05-10T16:07:05.653Z,3.88
2023-05-10T16:09:51.080Z,3.42
2023-05-10T16:12:36.729Z,3.45
2023-05-10T16:15:22.530Z,3.15
2023-05-10T16:18:07.715Z,3.38
2023-05-10T16:20:53.959Z,3.30
2023-05-10T16:23:39.606Z,3.13
2023-05-10T16:26:24.981Z,2.75
2023-05-10T16:29:10.567Z,2.90
2023-05-10T16:31:55.772Z,2.80
2023-05-10T16:34:41.263Z,3.00
2023-05-10T16:37:26.628Z,2.85
2023-05-10T16:40:12.359Z,2.95
2023-05-10T16:42:58.135Z,2.65
2023-05-10T16:45:43.771Z,3.28
2023-05-10T16:48:29.069Z,3.15
2023-05-10T16:51:14.291Z,3.70
2023-05-10T16:53:59.926Z,3.25
2023-05-10T16:56:45.170Z,3.97
2023-05-10T16:59:30.507Z,3.75
2023-05-10T17:02:16.779Z,4.30
2023-05-10T17:05:02.060Z,4.32
2023-05-10T17:07:47.497Z,4.93
2023-05-10T17:10:33.089Z,3.72
2023-05-10T17:13:18.742Z,4.97
2023-05-10T17:16:04.520Z,4.65
2023-05-10T17:18:49.833Z,4.43
2023-05-10T17:21:35.656Z,4.38
2023-05-10T17:24:20.970Z,9.07
2023-05-10T17:27:06.023Z,9.23
2023-05-10T17:29:57.052Z,12.13
2023-05-10T17:32:42.745Z,12.45
2023-05-10T17:35:28.167Z,10.60
2023-05-10T17:38:13.984Z,11.07
2023-05-10T17:40:59.098Z,9.25
2023-05-10T17:43:44.692Z,11.13
2023-05-10T17:46:29.907Z,8.68
2023-05-10T17:49:15.548Z,8.38
2023-05-10T17:52:00.626Z,8.70
2023-05-10T17:54:45.955Z,7.75
2023-05-10T17:57:31.346Z,9.90
2023-05-10T18:00:17.003Z,8.70
2023-05-10T18:03:03.516Z,8.75
2023-05-10T18:05:49.591Z,8.55
2023-05-10T18:08:34.791Z,9.30
2023-05-10T18:11:20.445Z,8.27
2023-05-10T18:14:05.951Z,8.75
2023-05-10T18:16:51.860Z,8.38
2023-05-10T18:19:37.533Z,9.02
2023-05-10T18:22:22.933Z,8.65
2023-05-10T18:25:08.919Z,10.73
2023-05-10T18:27:54.677Z,9.70
2023-05-10T18:30:40.470Z,8.63
2023-05-10T18:33:25.794Z,12.60
2023-05-10T18:36:11.127Z,11.80
2023-05-10T18:38:56.658Z,10.50
2023-05-10T18:41:42.592Z,9.90
2023-05-10T18:44:28.911Z,9.27
2023-05-10T18:47:14.789Z,10.30
2023-05-10T18:49:59.956Z,9.80
2023-05-10T18:52:46.495Z,10.88
2023-05-10T18:55:32.210Z,16.00
2023-05-10T18:58:17.840Z,13.40
2023-05-10T19:01:03.210Z,13.32
2023-05-10T19:03:48.477Z,16.33
2023-05-10T19:06:33.923Z,13.75
2023-05-10T19:09:21.002Z,15.15
2023-05-10T19:12:06.405Z,15.93
2023-05-10T19:14:51.823Z,15.43
2023-05-10T19:17:39.128Z,13.07
2023-05-10T19:20:24.547Z,14.18
2023-05-10T19:23:10.463Z,12.07
2023-05-10T19:25:55.765Z,12.57
2023-05-10T19:28:41.454Z,13.35
2023-05-10T19:31:26.728Z,11.50
2023-05-10T19:34:12.133Z,9.85
2023-05-10T19:36:58.042Z,13.93
2023-05-10T19:39:43.381Z,12.65
2023-05-10T19:42:28.779Z,11.80
2023-05-10T19:45:15.803Z,12.82
2023-05-10T19:48:01.523Z,12.85
2023-05-10T19:50:47.186Z,16.00
2023-05-10T19:53:32.444Z,14.73
2023-05-10T19:56:18.498Z,15.70
2023-05-10T19:59:03.953Z,13.15
2023-05-10T20:01:49.046Z,15.10
2023-05-10T20:04:34.429Z,16.48
2023-05-10T20:07:19.886Z,18.65
2023-05-10T20:10:05.583Z,18.42
2023-05-10T20:12:52.237Z,19.90
2023-05-10T20:15:37.528Z,18.20
2023-05-10T20:18:23.559Z,21.35
2023-05-10T20:21:09.006Z,16.65
2023-05-10T20:23:54.551Z,15.05
2023-05-10T20:26:40.846Z,17.95
2023-05-10T20:29:26.629Z,13.85
2023-05-10T20:32:12.272Z,14.05
2023-05-10T20:34:57.642Z,13.68
2023-05-10T20:37:42.997Z,13.07
2023-05-10T20:40:28.521Z,13.45
2023-05-10T20:43:14.046Z,12.88
2023-05-10T20:46:05.150Z,16.67
2023-05-10T20:48:50.930Z,15.02
2023-05-10T20:51:36.238Z,17.45
2023-05-10T20:54:22.104Z,15.63
2023-05-10T20:57:07.533Z,17.52
2023-05-10T20:59:53.069Z,15.45
2023-05-10T21:02:38.257Z,17.20
2023-05-10T21:05:23.946Z,14.50
2023-05-10T21:08:09.226Z,18.98
2023-05-10T21:10:54.838Z,21.02
2023-05-10T21:13:40.257Z,21.90
2023-05-10T21:16:25.621Z,19.35
2023-05-10T21:19:11.545Z,21.88
2023-05-10T21:21:58.929Z,21.20
2023-05-10T21:24:44.206Z,21.70
2023-05-10T21:27:29.676Z,16.10
2023-05-10T21:30:15.363Z,16.05
2023-05-10T21:33:02.430Z,19.50
2023-05-10T21:35:48.010Z,16.08
2023-05-10T21:38:33.793Z,18.38
2023-05-10T21:41:19.239Z,14.20
2023-05-10T21:44:05.033Z,20.63
2023-05-10T21:46:50.575Z,23.30
2023-05-10T21:49:36.132Z,20.73
2023-05-10T21:52:21.325Z,19.05
2023-05-10T21:55:08.476Z,17.42
2023-05-10T21:57:53.876Z,16.23
2023-05-10T22:00:39.366Z,13.75
2023-05-10T22:03:24.828Z,13.38
2023-05-10T22:06:10.268Z,13.80
2023-05-10T22:08:55.473Z,13.85
2023-05-10T22:11:41.136Z,11.75
2023-05-10T22:14:26.339Z,12.55
2023-05-10T22:17:11.898Z,11.32
2023-05-10T22:19:57.482Z,11.15
2023-05-10T22:22:42.871Z,12.73
2023-05-10T22:25:28.487Z,11.90
2023-05-10T22:28:13.834Z,11.23
2023-05-10T22:30:59.442Z,11.30
2023-05-10T22:33:44.877Z,11.10
2023-05-10T22:36:30.741Z,12.20
2023-05-10T22:39:16.755Z,11.60
2023-05-10T22:42:02.165Z,15.20
2023-05-10T22:44:47.865Z,15.52
2023-05-10T22:47:33.579Z,15.63
2023-05-10T22:50:19.425Z,15.52
2023-05-10T22:53:04.912Z,13.38
2023-05-10T22:55:51.398Z,12.88
2023-05-10T22:58:36.642Z,14.57
2023-05-10T23:01:21.942Z,14.63
2023-05-10T23:04:07.448Z,15.10
2023-05-10T23:06:53.520Z,16.45
2023-05-10T23:09:39.081Z,16.42
2023-05-10T23:12:25.074Z,13.20
2023-05-10T23:15:10.984Z,17.77
2023-05-10T23:17:56.538Z,16.63
2023-05-10T23:20:42.735Z,17.50
2023-05-10T23:23:28.041Z,17.50
2023-05-10T23:26:13.503Z,19.23
2023-05-10T23:29:00.376Z,19.83
2023-05-10T23:31:49.023Z,18.00
2023-05-10T23:34:34.332Z,20.27
2023-05-10T23:37:19.386Z,23.67
2023-05-10T23:40:05.227Z,21.42
2023-05-10T23:42:50.491Z,19.02
2023-05-10T23:45:35.993Z,17.83
2023-05-10T23:48:21.748Z,16.80
2023-05-10T23:51:07.285Z,16.48
2023-05-10T23:53:52.277Z,15.77
2023-05-10T23:56:37.693Z,15.40
2023-05-10T23:59:23.050Z,16.30
